Time;durP1;ratioP1;P1;durP2;ratioP2;P2;SDS_P1;SDS_P2;PMS_P1;PMS_P2;Temp;Humidity;BMP_temperature;BMP_pressure;BME280_temperature;BME280_humidity;BME280_pressure;Samples;Min_cycle;Max_cycle;Signal;HPM_P1;HPM_P2
2023/03/02 00:01:19;;;;;;;3.70;3.40;;;;;;;;;;5070885;28;20201;-80
2023/03/02 00:03:45;;;;;;;5.43;3.67;;;;;;;;;;5083110;28;20234;-80
2023/03/02 00:06:14;;;;;;;6.27;4.57;;;;;;;;;;5077528;28;20232;-82
2023/03/02 00:08:41;;;;;;;8.57;3.37;;;;;;;;;;5078928;28;20217;-80
2023/03/02 00:11:08;;;;;;;5.23;4.03;;;;;;;;;;5071369;28;20599;-79
2023/03/02 00:13:35;;;;;;;4.90;4.00;;;;;;;;;;5070869;28;20200;-80
2023/03/02 00:16:02;;;;;;;4.80;4.30;;;;;;;;;;5057590;28;20220;-80
2023/03/02 00:18:29;;;;;;;4.93;4.43;;;;;;;;;;5070952;28;20220;-80
2023/03/02 00:20:56;;;;;;;4.37;3.70;;;;;;;;;;5083584;28;20779;-80
2023/03/02 00:23:24;;;;;;;4.20;3.80;;;;;;;;;;5085152;28;20257;-80
2023/03/02 00:25:50;;;;;;;3.73;3.40;;;;;;;;;;5091088;28;20573;-80
2023/03/02 00:28:17;;;;;;;5.70;4.43;;;;;;;;;;5076317;28;20205;-80
2023/03/02 00:30:44;;;;;;;4.57;4.17;;;;;;;;;;5079000;28;20627;-81
2023/03/02 00:33:11;;;;;;;5.13;4.63;;;;;;;;;;5075826;28;20209;-80
2023/03/02 00:35:38;;;;;;;4.13;3.73;;;;;;;;;;5079341;28;20614;-80
2023/03/02 00:38:06;;;;;;;5.33;4.30;;;;;;;;;;5077227;28;20680;-80
2023/03/02 00:40:34;;;;;;;4.80;4.10;;;;;;;;;;5082288;28;20295;-80
2023/03/02 00:43:01;;;;;;;5.83;4.63;;;;;;;;;;5070773;28;20201;-80
2023/03/02 00:45:27;;;;;;;5.30;4.60;;;;;;;;;;5070799;28;20221;-80
2023/03/02 00:47:54;;;;;;;6.50;5.63;;;;;;;;;;5070500;28;20209;-80
2023/03/02 00:50:21;;;;;;;6.90;5.20;;;;;;;;;;5079534;28;20196;-79
2023/03/02 00:52:48;;;;;;;4.73;4.33;;;;;;;;;;5074619;28;20209;-80
2023/03/02 00:55:15;;;;;;;5.60;4.63;;;;;;;;;;5070064;28;20607;-81
2023/03/02 00:57:43;;;;;;;4.77;4.10;;;;;;;;;;5070498;28;20228;-80
2023/03/02 01:00:11;;;;;;;8.40;4.27;;;;;;;;;;5070921;28;20205;-80
2023/03/02 01:02:42;;;;;;;4.33;3.93;;;;;;;;;;5070209;28;20684;-80
2023/03/02 01:05:09;;;;;;;3.97;3.57;;;;;;;;;;5070291;28;20672;-81
2023/03/02 01:07:36;;;;;;;5.07;4.00;;;;;;;;;;5087608;28;20224;-80
2023/03/02 01:10:03;;;;;;;7.37;5.20;;;;;;;;;;5090585;28;20569;-80
2023/03/02 01:12:31;;;;;;;6.30;4.67;;;;;;;;;;5072160;28;20258;-80
2023/03/02 01:14:59;;;;;;;10.80;5.20;;;;;;;;;;5070269;28;20205;-80
2023/03/02 01:17:26;;;;;;;16.10;4.73;;;;;;;;;;5083856;28;20236;-79
2023/03/02 01:19:53;;;;;;;5.33;4.80;;;;;;;;;;5081693;28;20211;-79
2023/03/02 01:22:20;;;;;;;5.27;4.77;;;;;;;;;;5072329;28;20201;-80
2023/03/02 01:24:47;;;;;;;4.33;3.80;;;;;;;;;;5081680;28;20671;-80
2023/03/02 01:27:14;;;;;;;5.47;4.33;;;;;;;;;;5071751;28;20587;-80
2023/03/02 01:29:41;;;;;;;5.17;4.40;;;;;;;;;;5070290;28;20197;-80
2023/03/02 01:32:09;;;;;;;4.73;3.83;;;;;;;;;;5072736;28;20734;-80
2023/03/02 01:34:36;;;;;;;4.87;4.03;;;;;;;;;;5073586;28;20753;-80
2023/03/02 01:37:03;;;;;;;6.10;4.10;;;;;;;;;;5073655;28;20224;-79
2023/03/02 01:39:30;;;;;;;6.33;4.93;;;;;;;;;;5073406;28;20212;-80
2023/03/02 01:41:56;;;;;;;5.67;4.47;;;;;;;;;;5087290;28;20247;-79
2023/03/02 01:44:42;;;;;;;4.60;3.83;;;;;;;;;;5073377;28;20209;-80
2023/03/02 01:47:18;;;;;;;25.07;5.70;;;;;;;;;;5071270;28;20226;-79
2023/03/02 01:49:49;;;;;;;38.93;6.63;;;;;;;;;;5093395;28;20218;-80
2023/03/02 01:52:16;;;;;;;22.50;4.40;;;;;;;;;;5082635;28;20204;-80
2023/03/02 01:54:48;;;;;;;42.13;5.13;;;;;;;;;;5086753;28;20212;-80
2023/03/02 01:57:16;;;;;;;44.57;4.47;;;;;;;;;;5073182;28;20227;-80
2023/03/02 01:59:44;;;;;;;77.13;6.20;;;;;;;;;;5079214;28;20667;-79
2023/03/02 02:02:11;;;;;;;70.83;6.47;;;;;;;;;;5093158;28;20204;-80
2023/03/02 02:04:42;;;;;;;48.47;5.63;;;;;;;;;;5073389;28;20208;-80
2023/03/02 02:07:09;;;;;;;51.33;5.60;;;;;;;;;;5072968;28;20706;-80
2023/03/02 02:09:39;;;;;;;45.23;5.97;;;;;;;;;;5073324;28;20201;-80
2023/03/02 02:12:06;;;;;;;66.10;5.77;;;;;;;;;;5087070;28;20197;-80
2023/03/02 02:14:33;;;;;;;35.43;4.70;;;;;;;;;;5085161;28;20254;-80
2023/03/02 02:17:00;;;;;;;57.50;5.73;;;;;;;;;;5072962;28;20229;-80
2023/03/02 02:19:35;;;;;;;75.03;6.30;;;;;;;;;;5072953;28;20196;-80
2023/03/02 02:22:04;;;;;;;71.00;6.00;;;;;;;;;;5072562;28;20204;-80
2023/03/02 02:24:33;;;;;;;46.90;5.33;;;;;;;;;;5072936;28;20201;-80
2023/03/02 02:27:02;;;;;;;49.23;5.70;;;;;;;;;;5086487;28;20266;-80
2023/03/02 02:29:32;;;;;;;35.23;4.17;;;;;;;;;;5072670;28;20201;-80
2023/03/02 02:32:05;;;;;;;40.63;4.47;;;;;;;;;;5086151;28;20209;-80
2023/03/02 02:34:34;;;;;;;67.17;6.27;;;;;;;;;;5084851;28;20204;-80
2023/03/02 02:37:05;;;;;;;39.87;4.03;;;;;;;;;;5073500;28;20221;-80
2023/03/02 02:39:35;;;;;;;49.20;5.50;;;;;;;;;;5072661;28;20208;-81
2023/03/02 02:42:06;;;;;;;44.87;5.10;;;;;;;;;;5059389;28;20185;-80
2023/03/02 02:44:33;;;;;;;53.53;4.60;;;;;;;;;;5072446;28;20213;-80
2023/03/02 02:47:00;;;;;;;35.73;5.33;;;;;;;;;;5072508;28;20270;-80
2023/03/02 02:49:30;;;;;;;21.30;4.27;;;;;;;;;;5085702;28;20204;-80
2023/03/02 02:51:57;;;;;;;25.40;4.60;;;;;;;;;;5072096;28;20197;-80
2023/03/02 02:54:24;;;;;;;22.10;4.67;;;;;;;;;;5085991;28;20211;-80
2023/03/02 02:56:52;;;;;;;29.13;4.03;;;;;;;;;;5071751;28;20726;-80
2023/03/02 02:59:22;;;;;;;14.80;3.80;;;;;;;;;;5088406;28;20223;-81
2023/03/02 03:01:50;;;;;;;14.90;3.40;;;;;;;;;;5092404;28;20204;-81
2023/03/02 03:04:21;;;;;;;5.97;3.43;;;;;;;;;;5078912;28;20265;-80
2023/03/02 03:06:52;;;;;;;17.33;3.77;;;;;;;;;;5081037;28;20240;-79
2023/03/02 03:09:19;;;;;;;13.27;4.13;;;;;;;;;;5085547;28;20197;-80
2023/03/02 03:11:48;;;;;;;16.63;4.77;;;;;;;;;;5073078;28;20208;-80
2023/03/02 03:14:16;;;;;;;9.73;4.13;;;;;;;;;;5091116;28;20686;-80
2023/03/02 03:16:46;;;;;;;9.53;3.23;;;;;;;;;;5091865;28;20243;-80
2023/03/02 03:19:17;;;;;;;20.40;4.20;;;;;;;;;;5072111;28;20618;-80
2023/03/02 03:21:44;;;;;;;9.03;3.80;;;;;;;;;;5072025;28;20295;-80
2023/03/02 03:24:11;;;;;;;9.60;4.37;;;;;;;;;;5084408;28;20193;-80
2023/03/02 03:26:38;;;;;;;12.40;7.10;;;;;;;;;;5084701;28;20208;-80
2023/03/02 03:29:05;;;;;;;12.13;6.53;;;;;;;;;;5071870;28;20197;-80
2023/03/02 03:31:32;;;;;;;14.83;10.13;;;;;;;;;;5071075;28;20220;-80
2023/03/02 03:34:00;;;;;;;19.30;5.17;;;;;;;;;;5071652;28;20197;-81
2023/03/02 03:36:27;;;;;;;9.87;3.80;;;;;;;;;;5072639;28;20300;-80
2023/03/02 03:38:54;;;;;;;12.63;6.43;;;;;;;;;;5083222;28;20208;-80
2023/03/02 03:41:21;;;;;;;12.07;6.57;;;;;;;;;;5071266;28;21304;-81
2023/03/02 03:43:48;;;;;;;12.00;4.50;;;;;;;;;;5071466;28;20266;-80
2023/03/02 03:46:15;;;;;;;11.13;5.20;;;;;;;;;;5071106;28;20235;-81
2023/03/02 03:48:42;;;;;;;9.53;4.43;;;;;;;;;;5080163;28;20203;-80
2023/03/02 03:51:11;;;;;;;22.43;4.43;;;;;;;;;;5077721;28;20212;-81
2023/03/02 03:53:38;;;;;;;12.00;4.50;;;;;;;;;;5090417;28;20601;-80
2023/03/02 03:56:06;;;;;;;8.37;4.67;;;;;;;;;;5077739;28;20215;-80
2023/03/02 03:58:32;;;;;;;10.70;5.90;;;;;;;;;;5079264;28;20287;-80
2023/03/02 04:00:59;;;;;;;9.53;5.93;;;;;;;;;;5066632;28;20197;-80
2023/03/02 04:03:26;;;;;;;5.30;4.80;;;;;;;;;;5083098;28;20209;-80
2023/03/02 04:05:53;;;;;;;19.53;5.07;;;;;;;;;;5072790;28;20220;-80
2023/03/02 04:08:22;;;;;;;22.17;5.17;;;;;;;;;;5082122;28;20185;-81
2023/03/02 04:10:48;;;;;;;18.70;5.20;;;;;;;;;;5073813;28;20249;-81
2023/03/02 04:13:15;;;;;;;27.30;5.17;;;;;;;;;;5073368;28;20205;-80
2023/03/02 04:15:42;;;;;;;7.97;4.57;;;;;;;;;;5074144;28;20621;-81
2023/03/02 04:18:09;;;;;;;9.57;4.90;;;;;;;;;;5090931;28;20646;-80
2023/03/02 04:20:36;;;;;;;12.77;4.87;;;;;;;;;;5077091;28;20706;-80
2023/03/02 04:23:03;;;;;;;12.07;4.23;;;;;;;;;;5091378;28;20208;-80
2023/03/02 04:25:31;;;;;;;34.17;6.80;;;;;;;;;;5086393;28;20805;-80
2023/03/02 04:27:58;;;;;;;30.10;5.93;;;;;;;;;;5070825;28;20227;-79
2023/03/02 04:30:26;;;;;;;26.93;13.17;;;;;;;;;;5070631;28;20204;-80
2023/03/02 04:32:56;;;;;;;17.47;10.20;;;;;;;;;;5070945;28;20783;-81
2023/03/02 04:35:24;;;;;;;12.80;7.57;;;;;;;;;;5070584;28;20284;-81
2023/03/02 04:37:50;;;;;;;22.40;8.00;;;;;;;;;;5070841;28;20229;-84
2023/03/02 04:40:17;;;;;;;22.27;11.80;;;;;;;;;;5077892;28;20193;-77
2023/03/02 04:42:46;;;;;;;9.83;7.73;;;;;;;;;;5085694;28;20658;-77
2023/03/02 04:45:13;;;;;;;21.23;7.50;;;;;;;;;;5077321;28;20193;-78
2023/03/02 04:47:40;;;;;;;13.23;7.50;;;;;;;;;;5086339;28;20475;-82
2023/03/02 04:50:08;;;;;;;11.97;7.97;;;;;;;;;;5091078;28;20208;-82
2023/03/02 04:52:35;;;;;;;19.23;9.83;;;;;;;;;;5090150;28;20211;-82
2023/03/02 04:55:01;;;;;;;12.40;7.73;;;;;;;;;;5081229;28;20200;-81
2023/03/02 04:57:28;;;;;;;14.57;6.80;;;;;;;;;;5073372;28;20250;-82
2023/03/02 04:59:56;;;;;;;16.83;8.73;;;;;;;;;;5090339;28;20204;-81
2023/03/02 05:02:23;;;;;;;32.23;10.33;;;;;;;;;;5090396;28;20242;-82
2023/03/02 05:04:50;;;;;;;21.00;8.93;;;;;;;;;;5079764;28;20232;-82
2023/03/02 05:07:17;;;;;;;37.70;8.27;;;;;;;;;;5073851;28;20248;-82
2023/03/02 05:09:43;;;;;;;25.90;6.53;;;;;;;;;;5074392;28;20625;-81
2023/03/02 05:12:10;;;;;;;50.00;7.53;;;;;;;;;;5090710;28;20604;-82
2023/03/02 05:14:37;;;;;;;62.43;8.43;;;;;;;;;;5073931;28;20204;-81
2023/03/02 05:17:05;;;;;;;28.30;8.97;;;;;;;;;;5075504;28;20671;-84
2023/03/02 05:19:32;;;;;;;40.10;9.47;;;;;;;;;;5085509;28;20209;-83
2023/03/02 05:21:58;;;;;;;38.47;8.33;;;;;;;;;;5076187;28;20197;-83
2023/03/02 05:24:26;;;;;;;10.83;9.20;;;;;;;;;;5084807;28;20637;-83
2023/03/02 05:26:52;;;;;;;16.33;9.30;;;;;;;;;;5087722;28;20259;-85
2023/03/02 05:29:19;;;;;;;28.90;13.37;;;;;;;;;;5074676;28;20649;-83
2023/03/02 05:31:46;;;;;;;32.17;17.23;;;;;;;;;;5073420;28;20303;-83
2023/03/02 05:34:16;;;;;;;32.00;13.93;;;;;;;;;;5083795;28;20678;-83
2023/03/02 05:36:43;;;;;;;34.53;14.60;;;;;;;;;;5080391;28;20245;-83
2023/03/02 05:39:10;;;;;;;42.67;14.50;;;;;;;;;;5093900;28;20227;-83
2023/03/02 05:41:38;;;;;;;31.93;21.50;;;;;;;;;;5079981;28;20200;-83
2023/03/02 05:44:08;;;;;;;19.67;11.23;;;;;;;;;;5082786;28;20569;-83
2023/03/02 05:46:35;;;;;;;28.90;17.43;;;;;;;;;;5091717;28;20215;-83
2023/03/02 05:49:01;;;;;;;19.57;15.63;;;;;;;;;;5082172;28;20943;-83
2023/03/02 05:51:30;;;;;;;18.10;13.73;;;;;;;;;;5073534;28;20270;-83
2023/03/02 05:53:56;;;;;;;23.17;16.00;;;;;;;;;;5086349;28;20203;-84
2023/03/02 05:56:23;;;;;;;31.43;16.23;;;;;;;;;;5093159;28;20212;-83
2023/03/02 05:58:50;;;;;;;24.23;16.50;;;;;;;;;;5081251;28;20684;-83
2023/03/02 06:01:16;;;;;;;23.23;15.03;;;;;;;;;;5073290;28;20205;-82
2023/03/02 06:03:43;;;;;;;47.90;21.23;;;;;;;;;;5073493;28;20201;-83
2023/03/02 06:06:12;;;;;;;29.33;19.87;;;;;;;;;;5086974;28;20232;-83
2023/03/02 06:08:42;;;;;;;37.70;21.80;;;;;;;;;;5086653;28;20226;-83
2023/03/02 06:11:09;;;;;;;46.50;24.87;;;;;;;;;;5080392;28;20717;-82
2023/03/02 06:13:36;;;;;;;39.83;18.70;;;;;;;;;;5093256;28;20269;-83
2023/03/02 06:16:03;;;;;;;40.13;13.67;;;;;;;;;;5086116;28;20258;-83
2023/03/02 06:18:30;;;;;;;46.93;16.10;;;;;;;;;;5059674;28;20233;-83
2023/03/02 06:20:59;;;;;;;50.27;23.50;;;;;;;;;;5079731;28;20196;-84
2023/03/02 06:23:27;;;;;;;21.50;14.43;;;;;;;;;;5093405;28;20197;-83
2023/03/02 06:25:56;;;;;;;37.00;27.93;;;;;;;;;;5086077;28;20209;-83
2023/03/02 06:28:23;;;;;;;19.17;11.93;;;;;;;;;;5073231;28;20300;-83
2023/03/02 06:30:51;;;;;;;13.73;8.90;;;;;;;;;;5072940;28;20248;-83
2023/03/02 06:33:20;;;;;;;14.90;10.37;;;;;;;;;;5059078;28;20765;-83
2023/03/02 06:35:47;;;;;;;23.03;14.47;;;;;;;;;;5072656;28;20743;-83
2023/03/02 06:38:14;;;;;;;16.53;13.43;;;;;;;;;;5072260;28;20315;-83
2023/03/02 06:40:41;;;;;;;25.73;14.23;;;;;;;;;;5072475;28;20209;-82
2023/03/02 06:43:09;;;;;;;42.03;27.67;;;;;;;;;;5088274;28;20216;-83
2023/03/02 06:45:36;;;;;;;19.13;12.40;;;;;;;;;;5093075;28;20212;-82
2023/03/02 06:48:03;;;;;;;28.80;15.03;;;;;;;;;;5079194;28;20573;-83
2023/03/02 06:50:30;;;;;;;28.93;19.73;;;;;;;;;;5083413;28;20266;-84
2023/03/02 06:52:57;;;;;;;22.57;17.67;;;;;;;;;;5085959;28;20247;-83
2023/03/02 06:55:25;;;;;;;20.57;11.50;;;;;;;;;;5072238;28;20680;-83
2023/03/02 06:57:52;;;;;;;19.47;16.00;;;;;;;;;;5089436;28;20235;-83
2023/03/02 07:00:26;;;;;;;17.37;14.03;;;;;;;;;;5092398;28;20208;-83
2023/03/02 07:02:53;;;;;;;17.00;13.23;;;;;;;;;;5078884;28;20199;-83
2023/03/02 07:05:21;;;;;;;21.53;15.43;;;;;;;;;;5080847;28;20209;-83
2023/03/02 07:07:48;;;;;;;23.50;14.70;;;;;;;;;;5090533;28;20223;-83
2023/03/02 07:10:15;;;;;;;24.47;16.90;;;;;;;;;;5092441;28;20208;-83
2023/03/02 07:12:42;;;;;;;18.67;12.10;;;;;;;;;;5078957;28;20212;-83
2023/03/02 07:15:12;;;;;;;24.33;18.80;;;;;;;;;;5079251;28;20213;-83
2023/03/02 07:17:42;;;;;;;25.70;22.80;;;;;;;;;;5071913;28;20254;-83
2023/03/02 07:20:10;;;;;;;28.33;19.93;;;;;;;;;;5085641;28;20231;-83
2023/03/02 07:22:37;;;;;;;36.13;17.67;;;;;;;;;;5092000;28;20257;-83
2023/03/02 07:25:05;;;;;;;23.67;18.27;;;;;;;;;;5091264;28;20223;-82
2023/03/02 07:27:31;;;;;;;28.63;20.70;;;;;;;;;;5079396;28;20655;-83
2023/03/02 07:29:58;;;;;;;24.57;15.70;;;;;;;;;;5091648;28;20201;-83
2023/03/02 07:32:25;;;;;;;18.83;14.63;;;;;;;;;;5083830;28;20201;-83
2023/03/02 07:34:53;;;;;;;23.03;18.37;;;;;;;;;;5073249;28;20197;-83
2023/03/02 07:37:20;;;;;;;23.60;21.07;;;;;;;;;;5091867;28;20266;-83
2023/03/02 07:39:49;;;;;;;24.03;20.83;;;;;;;;;;5091423;28;20285;-83
2023/03/02 07:42:16;;;;;;;19.80;11.80;;;;;;;;;;5091588;28;20246;-82
2023/03/02 07:44:46;;;;;;;23.67;13.00;;;;;;;;;;5078043;28;20200;-83
2023/03/02 07:47:12;;;;;;;17.37;14.57;;;;;;;;;;5081402;28;20212;-83
2023/03/02 07:49:39;;;;;;;36.77;16.43;;;;;;;;;;5088536;28;20197;-83
2023/03/02 07:52:07;;;;;;;45.00;12.27;;;;;;;;;;5081122;28;20209;-83
2023/03/02 07:54:34;;;;;;;26.23;17.57;;;;;;;;;;5075393;28;20693;-83
2023/03/02 07:57:01;;;;;;;27.27;14.27;;;;;;;;;;5091498;28;20629;-84
2023/03/02 07:59:28;;;;;;;21.07;14.33;;;;;;;;;;5073632;28;20738;-83
2023/03/02 08:01:55;;;;;;;25.00;17.57;;;;;;;;;;5071439;28;20227;-84
2023/03/02 08:04:22;;;;;;;25.97;12.63;;;;;;;;;;5084814;28;20219;-83
2023/03/02 08:06:49;;;;;;;21.93;11.70;;;;;;;;;;5082910;28;21205;-83
2023/03/02 08:09:17;;;;;;;28.30;11.47;;;;;;;;;;5086410;28;20639;-83
2023/03/02 08:11:45;;;;;;;16.47;10.13;;;;;;;;;;5071919;28;20753;-83
2023/03/02 08:14:11;;;;;;;26.20;12.90;;;;;;;;;;5085002;28;20201;-83
2023/03/02 08:16:39;;;;;;;26.83;11.50;;;;;;;;;;5071150;28;20206;-83
2023/03/02 08:19:06;;;;;;;20.80;8.47;;;;;;;;;;5076141;28;20223;-83
2023/03/02 08:21:33;;;;;;;22.07;9.97;;;;;;;;;;5091141;28;20208;-84
2023/03/02 08:24:00;;;;;;;29.97;9.93;;;;;;;;;;5071653;28;20296;-83
2023/03/02 08:26:28;;;;;;;20.53;11.03;;;;;;;;;;5071282;28;20212;-83
2023/03/02 08:28:56;;;;;;;16.63;13.23;;;;;;;;;;5076941;28;20196;-83
2023/03/02 08:31:22;;;;;;;20.97;11.63;;;;;;;;;;5091644;28;20261;-83
2023/03/02 08:33:49;;;;;;;38.53;10.43;;;;;;;;;;5090722;28;20208;-83
2023/03/02 08:36:18;;;;;;;49.60;12.50;;;;;;;;;;5091008;28;20208;-83
2023/03/02 08:38:46;;;;;;;16.70;13.20;;;;;;;;;;5057897;28;20216;-83
2023/03/02 08:41:15;;;;;;;14.27;11.43;;;;;;;;;;5074260;28;20213;-84
2023/03/02 08:43:43;;;;;;;36.60;15.43;;;;;;;;;;5095440;28;20204;-82
2023/03/02 08:46:11;;;;;;;25.87;12.30;;;;;;;;;;5081709;28;20255;-83
2023/03/02 08:48:38;;;;;;;27.83;11.63;;;;;;;;;;5095123;28;20208;-83
2023/03/02 08:51:07;;;;;;;20.27;11.57;;;;;;;;;;5081072;28;20262;-82
2023/03/02 08:53:36;;;;;;;11.27;8.53;;;;;;;;;;5094800;28;20682;-83
2023/03/02 08:56:03;;;;;;;12.87;11.53;;;;;;;;;;5080675;28;20209;-83
2023/03/02 08:58:30;;;;;;;21.43;9.37;;;;;;;;;;5085625;28;20225;-83
2023/03/02 09:00:58;;;;;;;59.83;14.57;;;;;;;;;;5090840;28;20217;-83
2023/03/02 09:03:25;;;;;;;49.53;11.90;;;;;;;;;;5094445;28;20675;-83
2023/03/02 09:05:51;;;;;;;65.83;10.03;;;;;;;;;;5080656;28;20235;-83
2023/03/02 09:08:18;;;;;;;60.43;11.07;;;;;;;;;;5084183;28;20201;-83
2023/03/02 09:10:45;;;;;;;58.37;10.07;;;;;;;;;;5088122;28;20205;-83
2023/03/02 09:13:12;;;;;;;61.17;9.57;;;;;;;;;;5074808;28;20295;-83
2023/03/02 09:15:39;;;;;;;66.83;9.77;;;;;;;;;;5073934;28;20205;-83
2023/03/02 09:18:07;;;;;;;50.57;10.37;;;;;;;;;;5074513;28;20564;-83
2023/03/02 09:20:34;;;;;;;44.47;10.07;;;;;;;;;;5091102;28;20200;-85
2023/03/02 09:23:01;;;;;;;68.60;10.70;;;;;;;;;;5094485;28;20208;-83
2023/03/02 09:25:27;;;;;;;50.20;12.27;;;;;;;;;;5090194;28;20216;-84
2023/03/02 09:27:54;;;;;;;47.27;12.83;;;;;;;;;;5084931;28;20208;-83
2023/03/02 09:30:21;;;;;;;95.47;21.50;;;;;;;;;;5094317;28;20204;-82
2023/03/02 09:32:48;;;;;;;77.03;11.97;;;;;;;;;;5094245;28;20293;-83
2023/03/02 09:35:17;;;;;;;29.73;11.30;;;;;;;;;;5075941;28;20205;-83
2023/03/02 09:37:44;;;;;;;14.90;11.60;;;;;;;;;;5073818;28;20718;-83
2023/03/02 09:40:17;;;;;;;54.13;10.67;;;;;;;;;;5086796;28;20607;-83
2023/03/02 09:42:59;;;;;;;34.60;10.10;;;;;;;;;;5086650;28;20591;-83
2023/03/02 09:45:37;;;;;;;14.30;8.03;;;;;;;;;;5069998;28;20755;-83
2023/03/02 09:48:13;;;;;;;16.53;8.87;;;;;;;;;;5080049;28;20699;-83
2023/03/02 09:50:51;;;;;;;11.87;9.13;;;;;;;;;;5093662;28;20200;-84
2023/03/02 09:53:27;;;;;;;23.53;14.23;;;;;;;;;;5093909;28;20196;-83
2023/03/02 09:55:58;;;;;;;21.07;14.97;;;;;;;;;;5092554;28;20767;-83
2023/03/02 09:58:27;;;;;;;19.87;12.70;;;;;;;;;;5081872;28;20581;-83
2023/03/02 10:00:54;;;;;;;22.47;13.33;;;;;;;;;;5079694;28;20215;-83
2023/03/02 10:03:22;;;;;;;25.80;11.93;;;;;;;;;;5093604;28;20204;-83
2023/03/02 10:05:52;;;;;;;20.63;14.13;;;;;;;;;;5079906;28;20220;-83
2023/03/02 10:08:22;;;;;;;27.10;12.30;;;;;;;;;;5083464;28;20200;-83
2023/03/02 10:10:56;;;;;;;23.80;13.33;;;;;;;;;;5087508;28;20193;-83
2023/03/02 10:13:26;;;;;;;16.30;9.67;;;;;;;;;;5073207;28;20208;-83
2023/03/02 10:16:13;;;;;;;16.47;9.77;;;;;;;;;;5091704;28;20732;-83
2023/03/02 10:18:44;;;;;;;23.27;11.43;;;;;;;;;;5077947;28;20246;-83
2023/03/02 10:21:20;;;;;;;13.83;9.47;;;;;;;;;;5082213;28;20565;-83
2023/03/02 10:23:50;;;;;;;20.70;10.17;;;;;;;;;;5075441;28;20197;-83
2023/03/02 10:26:26;;;;;;;9.50;8.63;;;;;;;;;;5084523;28;20238;-83
2023/03/02 10:29:01;;;;;;;13.33;8.17;;;;;;;;;;5086690;28;20200;-83
2023/03/02 10:31:29;;;;;;;12.63;9.03;;;;;;;;;;5086254;28;20291;-83
2023/03/02 10:33:56;;;;;;;9.50;8.53;;;;;;;;;;5080567;28;20204;-82
2023/03/02 10:36:27;;;;;;;12.23;8.83;;;;;;;;;;5091567;28;20238;-83
2023/03/02 10:38:55;;;;;;;11.17;9.17;;;;;;;;;;5072412;28;20776;-81
2023/03/02 10:41:26;;;;;;;15.53;11.37;;;;;;;;;;5074764;28;20270;-81
2023/03/02 10:43:56;;;;;;;13.40;11.70;;;;;;;;;;5092854;28;20208;-80
2023/03/02 10:46:23;;;;;;;15.77;12.33;;;;;;;;;;5075812;28;20205;-83
2023/03/02 10:48:51;;;;;;;27.90;24.03;;;;;;;;;;5072315;28;20208;-83
2023/03/02 10:51:27;;;;;;;19.73;17.07;;;;;;;;;;5071838;28;20676;-84
2023/03/02 10:54:05;;;;;;;18.27;14.70;;;;;;;;;;5072429;28;20212;-82
2023/03/02 10:56:33;;;;;;;18.80;14.13;;;;;;;;;;5085167;28;20204;-83
2023/03/02 10:59:02;;;;;;;19.00;16.13;;;;;;;;;;5072274;28;20221;-83
2023/03/02 11:01:32;;;;;;;17.00;14.47;;;;;;;;;;5059378;28;20208;-83
2023/03/02 11:03:59;;;;;;;16.30;11.67;;;;;;;;;;5072214;28;20201;-83
2023/03/02 11:06:30;;;;;;;14.07;12.47;;;;;;;;;;5072061;28;20232;-84
2023/03/02 11:09:01;;;;;;;14.57;11.33;;;;;;;;;;5085726;28;20587;-83
2023/03/02 11:11:28;;;;;;;14.63;11.87;;;;;;;;;;5071739;28;20644;-83
2023/03/02 11:13:55;;;;;;;12.13;10.63;;;;;;;;;;5074533;28;20220;-83
2023/03/02 11:16:25;;;;;;;15.23;11.97;;;;;;;;;;5082519;28;20341;-83
2023/03/02 11:18:55;;;;;;;13.40;9.40;;;;;;;;;;5084537;28;20234;-83
2023/03/02 11:21:24;;;;;;;15.37;10.90;;;;;;;;;;5081902;28;20679;-83
2023/03/02 11:23:58;;;;;;;17.37;10.70;;;;;;;;;;5074412;28;20197;-83
2023/03/02 11:26:27;;;;;;;17.03;9.80;;;;;;;;;;5071418;28;20671;-83
2023/03/02 11:28:59;;;;;;;17.03;11.70;;;;;;;;;;5077206;28;20200;-83
2023/03/02 11:31:32;;;;;;;14.90;11.23;;;;;;;;;;5078249;28;20205;-84
2023/03/02 11:34:10;;;;;;;20.63;15.50;;;;;;;;;;5059354;28;20227;-83
2023/03/02 11:36:45;;;;;;;21.73;16.83;;;;;;;;;;5071296;28;20201;-84
2023/03/02 11:39:17;;;;;;;16.00;11.93;;;;;;;;;;5081841;28;20238;-84
2023/03/02 11:41:44;;;;;;;15.70;12.47;;;;;;;;;;5077946;28;20195;-83
2023/03/02 11:44:15;;;;;;;12.03;10.60;;;;;;;;;;5091550;28;20683;-83
2023/03/02 11:46:44;;;;;;;17.60;15.73;;;;;;;;;;5072091;28;20197;-86
2023/03/02 11:49:15;;;;;;;23.70;14.17;;;;;;;;;;5071537;28;20208;-83
2023/03/02 11:51:50;;;;;;;14.47;11.67;;;;;;;;;;5071088;28;20221;-88
2023/03/02 11:54:29;;;;;;;19.20;11.73;;;;;;;;;;5071479;28;20193;-83
2023/03/02 11:56:56;;;;;;;17.97;14.00;;;;;;;;;;5071428;28;20640;-83
2023/03/02 11:59:23;;;;;;;20.80;13.60;;;;;;;;;;5087301;28;20235;-83
2023/03/02 12:01:53;;;;;;;16.17;10.30;;;;;;;;;;5081834;28;20618;-83
2023/03/02 12:04:28;;;;;;;13.83;11.13;;;;;;;;;;5071523;28;20205;-83
2023/03/02 12:06:55;;;;;;;15.87;14.13;;;;;;;;;;5070864;28;20281;-82
2023/03/02 12:09:36;;;;;;;14.33;12.33;;;;;;;;;;5084495;28;20196;-82
2023/03/02 12:12:37;;;;;;;22.43;17.93;;;;;;;;;;5084467;28;20204;-83
2023/03/02 12:15:26;;;;;;;72.20;43.93;;;;;;;;;;5070935;28;20258;-83
2023/03/02 12:17:53;;;;;;;55.67;38.33;;;;;;;;;;5059493;28;20213;-84
2023/03/02 12:20:27;;;;;;;27.83;19.97;;;;;;;;;;5072527;28;20228;-83
2023/03/02 12:22:54;;;;;;;20.23;15.30;;;;;;;;;;5081679;28;20215;-83
2023/03/02 12:25:35;;;;;;;21.73;19.43;;;;;;;;;;5084034;28;20209;-83
2023/03/02 12:28:02;;;;;;;21.53;17.43;;;;;;;;;;5071334;28;20196;-83
2023/03/02 12:30:30;;;;;;;33.80;26.67;;;;;;;;;;5083774;28;20213;-83
2023/03/02 12:33:15;;;;;;;28.37;23.13;;;;;;;;;;5083482;28;20652;-82
2023/03/02 12:35:42;;;;;;;29.80;23.57;;;;;;;;;;5059221;28;20204;-83
2023/03/02 12:38:22;;;;;;;23.57;17.60;;;;;;;;;;5083998;28;20204;-83
2023/03/02 12:41:05;;;;;;;24.27;21.60;;;;;;;;;;5071243;28;20236;-83
2023/03/02 12:43:33;;;;;;;24.53;18.73;;;;;;;;;;5084129;28;20672;-83
2023/03/02 12:46:25;;;;;;;35.53;28.50;;;;;;;;;;5084577;28;20208;-83
2023/03/02 12:49:12;;;;;;;25.70;20.93;;;;;;;;;;5079941;28;20284;-83
2023/03/02 12:51:51;;;;;;;21.00;15.03;;;;;;;;;;5044670;28;20207;-83
2023/03/02 12:54:20;;;;;;;23.20;18.90;;;;;;;;;;5072695;28;20211;-83
2023/03/02 12:56:49;;;;;;;40.27;33.30;;;;;;;;;;5090515;28;20211;-83
2023/03/02 12:59:24;;;;;;;31.43;23.73;;;;;;;;;;5077284;28;20672;-83
2023/03/02 13:01:50;;;;;;;30.33;21.80;;;;;;;;;;5091197;28;20200;-83
2023/03/02 13:04:22;;;;;;;28.40;20.83;;;;;;;;;;5086661;28;20198;-83
2023/03/02 13:06:49;;;;;;;21.17;17.70;;;;;;;;;;5070693;28;20229;-82
2023/03/02 13:09:19;;;;;;;18.90;15.70;;;;;;;;;;5075242;28;20205;-83
2023/03/02 13:11:48;;;;;;;20.30;16.70;;;;;;;;;;5079225;28;20204;-83
2023/03/02 13:14:20;;;;;;;19.00;14.30;;;;;;;;;;5088955;28;20663;-83
2023/03/02 13:16:55;;;;;;;16.63;14.10;;;;;;;;;;5078168;28;20202;-83
2023/03/02 13:19:22;;;;;;;16.97;15.00;;;;;;;;;;5064447;28;20598;-83
2023/03/02 13:21:49;;;;;;;23.33;18.00;;;;;;;;;;5076710;28;20271;-83
2023/03/02 13:24:43;;;;;;;39.17;29.13;;;;;;;;;;5070647;28;20209;-83
2023/03/02 13:27:19;;;;;;;30.97;22.07;;;;;;;;;;5076727;28;20221;-82
2023/03/02 13:29:45;;;;;;;56.73;38.80;;;;;;;;;;5094611;28;20208;-84
2023/03/02 13:32:34;;;;;;;37.63;27.60;;;;;;;;;;5074744;28;20201;-83
2023/03/02 13:35:02;;;;;;;45.00;31.83;;;;;;;;;;5075752;28;20745;-82
2023/03/02 13:37:36;;;;;;;40.30;30.20;;;;;;;;;;5094281;28;20239;-83
2023/03/02 13:40:06;;;;;;;36.43;28.50;;;;;;;;;;5077176;28;20224;-83
2023/03/02 13:42:40;;;;;;;23.67;17.67;;;;;;;;;;5084534;28;20208;-83
2023/03/02 13:45:24;;;;;;;21.37;15.37;;;;;;;;;;5080506;28;20204;-83
2023/03/02 13:47:51;;;;;;;20.40;12.93;;;;;;;;;;5094007;28;20200;-82
2023/03/02 13:50:23;;;;;;;20.03;17.90;;;;;;;;;;5086178;28;20197;-85
2023/03/02 13:52:51;;;;;;;17.30;13.77;;;;;;;;;;5087118;28;20208;-82
2023/03/02 13:55:20;;;;;;;21.50;15.40;;;;;;;;;;5073204;28;20197;-83
2023/03/02 13:57:49;;;;;;;20.30;15.10;;;;;;;;;;5086975;28;20209;-89
2023/03/02 14:00:19;;;;;;;24.70;15.83;;;;;;;;;;5083599;28;20660;-83
2023/03/02 14:02:47;;;;;;;25.13;19.10;;;;;;;;;;5075759;28;20201;-83
2023/03/02 14:05:18;;;;;;;63.37;40.50;;;;;;;;;;5084732;28;20253;-83
2023/03/02 14:07:45;;;;;;;48.40;26.50;;;;;;;;;;5093459;28;20220;-82
2023/03/02 14:10:14;;;;;;;70.17;42.30;;;;;;;;;;5081483;28;20237;-83
2023/03/02 14:12:44;;;;;;;48.90;33.57;;;;;;;;;;5073177;28;20209;-82
2023/03/02 14:15:15;;;;;;;27.07;21.43;;;;;;;;;;5073199;28;20699;-83
2023/03/02 14:17:42;;;;;;;29.57;22.83;;;;;;;;;;5079915;28;20679;-83
2023/03/02 14:20:12;;;;;;;27.97;21.47;;;;;;;;;;5079510;28;20245;-83
2023/03/02 14:22:39;;;;;;;29.40;22.83;;;;;;;;;;5072883;28;20212;-82
2023/03/02 14:25:07;;;;;;;39.93;33.53;;;;;;;;;;5086483;28;20208;-83
2023/03/02 14:27:34;;;;;;;64.87;45.13;;;;;;;;;;5072931;28;20259;-82
2023/03/02 14:30:01;;;;;;;55.13;38.33;;;;;;;;;;5073316;28;20209;-82
2023/03/02 14:32:30;;;;;;;48.87;34.70;;;;;;;;;;5081863;28;20215;-83
2023/03/02 14:34:57;;;;;;;85.00;60.37;;;;;;;;;;5092662;28;20672;-83